sensor_id;sensor_type;location;lat;lon;timestamp;pressure;altitude;pressure_sealevel;temperature;humidity
61488;BME280;47351;53.326;-6.298;2023-03-14T00:01:34;99096.30;;;3.20;78.87
61488;BME280;47351;53.326;-6.298;2023-03-14T00:04:46;99103.02;;;3.18;79.05
61488;BME280;47351;53.326;-6.298;2023-03-14T00:07:57;99106.01;;;3.15;79.08
61488;BME280;47351;53.326;-6.298;2023-03-14T00:11:09;99116.17;;;3.12;79.28
61488;BME280;47351;53.326;-6.298;2023-03-14T00:14:21;99129.95;;;3.10;79.48
61488;BME280;47351;53.326;-6.298;2023-03-14T00:17:25;99140.14;;;3.08;79.63
61488;BME280;47351;53.326;-6.298;2023-03-14T00:20:36;99142.11;;;3.08;79.84
61488;BME280;47351;53.326;-6.298;2023-03-14T00:23:46;99147.96;;;3.08;80.07
61488;BME280;47351;53.326;-6.298;2023-03-14T00:26:57;99154.80;;;3.07;80.26
61488;BME280;47351;53.326;-6.298;2023-03-14T00:30:10;99163.77;;;3.05;80.52
61488;BME280;47351;53.326;-6.298;2023-03-14T00:33:22;99172.92;;;3.03;80.64
61488;BME280;47351;53.326;-6.298;2023-03-14T00:36:33;99175.44;;;3.00;80.81
61488;BME280;47351;53.326;-6.298;2023-03-14T00:39:44;99180.90;;;2.99;80.99
61488;BME280;47351;53.326;-6.298;2023-03-14T00:42:55;99192.76;;;2.98;81.21
61488;BME280;47351;53.326;-6.298;2023-03-14T00:46:07;99198.71;;;2.99;81.40
61488;BME280;47351;53.326;-6.298;2023-03-14T00:49:18;99200.67;;;2.98;81.68
61488;BME280;47351;53.326;-6.298;2023-03-14T00:52:29;99208.66;;;2.98;81.84
61488;BME280;47351;53.326;-6.298;2023-03-14T00:55:37;99215.83;;;2.97;82.02
61488;BME280;47351;53.326;-6.298;2023-03-14T00:58:48;99220.32;;;2.94;82.17
61488;BME280;47351;53.326;-6.298;2023-03-14T01:01:58;99230.99;;;2.93;82.35
61488;BME280;47351;53.326;-6.298;2023-03-14T01:05:10;99239.27;;;2.91;82.50
61488;BME280;47351;53.326;-6.298;2023-03-14T01:08:21;99247.63;;;2.91;82.57
61488;BME280;47351;53.326;-6.298;2023-03-14T01:11:32;99254.88;;;2.90;82.73
61488;BME280;47351;53.326;-6.298;2023-03-14T01:14:44;99260.85;;;2.92;82.93
61488;BME280;47351;53.326;-6.298;2023-03-14T01:17:55;99269.78;;;2.95;83.06
61488;BME280;47351;53.326;-6.298;2023-03-14T01:21:10;99278.58;;;2.98;83.02
61488;BME280;47351;53.326;-6.298;2023-03-14T01:24:20;99282.13;;;3.02;83.02
61488;BME280;47351;53.326;-6.298;2023-03-14T01:27:32;99292.61;;;3.05;82.96
61488;BME280;47351;53.326;-6.298;2023-03-14T01:30:43;99301.33;;;3.06;82.90
61488;BME280;47351;53.326;-6.298;2023-03-14T01:33:54;99316.44;;;3.07;82.92
61488;BME280;47351;53.326;-6.298;2023-03-14T01:37:05;99323.00;;;3.08;82.96
61488;BME280;47351;53.326;-6.298;2023-03-14T01:40:17;99337.88;;;3.11;83.10
61488;BME280;47351;53.326;-6.298;2023-03-14T01:43:28;99353.33;;;3.15;83.23
61488;BME280;47351;53.326;-6.298;2023-03-14T01:46:40;99368.27;;;3.21;83.37
61488;BME280;47351;53.326;-6.298;2023-03-14T01:49:45;99382.37;;;3.27;83.41
61488;BME280;47351;53.326;-6.298;2023-03-14T01:52:57;99388.07;;;3.30;83.51
61488;BME280;47351;53.326;-6.298;2023-03-14T01:56:09;99399.31;;;3.31;83.60
61488;BME280;47351;53.326;-6.298;2023-03-14T01:59:21;99415.12;;;3.26;83.58
61488;BME280;47351;53.326;-6.298;2023-03-14T02:02:32;99429.94;;;3.20;83.82
61488;BME280;47351;53.326;-6.298;2023-03-14T02:05:29;99446.31;;;3.14;84.05
61488;BME280;47351;53.326;-6.298;2023-03-14T02:08:42;99457.90;;;3.09;84.25
61488;BME280;47351;53.326;-6.298;2023-03-14T02:11:58;99466.81;;;3.04;84.59
61488;BME280;47351;53.326;-6.298;2023-03-14T02:15:22;99479.50;;;2.94;84.76
61488;BME280;47351;53.326;-6.298;2023-03-14T02:18:39;99487.63;;;2.83;84.83
61488;BME280;47351;53.326;-6.298;2023-03-14T02:22:01;99496.48;;;2.73;85.15
61488;BME280;47351;53.326;-6.298;2023-03-14T02:25:18;99502.80;;;2.63;85.42
61488;BME280;47351;53.326;-6.298;2023-03-14T02:28:35;99516.14;;;2.55;85.64
61488;BME280;47351;53.326;-6.298;2023-03-14T02:31:46;99524.55;;;2.50;85.91
61488;BME280;47351;53.326;-6.298;2023-03-14T02:34:58;99537.84;;;2.47;86.14
61488;BME280;47351;53.326;-6.298;2023-03-14T02:38:17;99546.88;;;2.45;86.38
61488;BME280;47351;53.326;-6.298;2023-03-14T02:41:31;99555.52;;;2.41;86.58
61488;BME280;47351;53.326;-6.298;2023-03-14T02:44:50;99567.02;;;2.36;86.68
61488;BME280;47351;53.326;-6.298;2023-03-14T02:48:04;99575.82;;;2.34;86.96
61488;BME280;47351;53.326;-6.298;2023-03-14T02:51:16;99583.35;;;2.35;87.10
61488;BME280;47351;53.326;-6.298;2023-03-14T02:54:27;99579.52;;;2.36;87.25
61488;BME280;47351;53.326;-6.298;2023-03-14T02:57:39;99559.18;;;2.41;87.67
61488;BME280;47351;53.326;-6.298;2023-03-14T03:00:53;99550.17;;;2.49;88.11
61488;BME280;47351;53.326;-6.298;2023-03-14T03:03:57;99551.99;;;2.58;88.31
61488;BME280;47351;53.326;-6.298;2023-03-14T03:07:08;99555.34;;;2.64;88.23
61488;BME280;47351;53.326;-6.298;2023-03-14T03:10:19;99535.39;;;2.71;88.28
61488;BME280;47351;53.326;-6.298;2023-03-14T03:13:30;99583.23;;;2.74;88.05
61488;BME280;47351;53.326;-6.298;2023-03-14T03:16:34;99605.61;;;2.73;87.69
61488;BME280;47351;53.326;-6.298;2023-03-14T03:19:45;99614.91;;;2.74;87.78
61488;BME280;47351;53.326;-6.298;2023-03-14T03:22:56;99622.89;;;2.75;87.85
61488;BME280;47351;53.326;-6.298;2023-03-14T03:26:10;99620.69;;;2.76;87.80
61488;BME280;47351;53.326;-6.298;2023-03-14T03:29:25;99641.30;;;2.74;87.65
61488;BME280;47351;53.326;-6.298;2023-03-14T03:32:36;99635.06;;;2.73;87.65
61488;BME280;47351;53.326;-6.298;2023-03-14T03:35:49;99660.89;;;2.72;87.76
61488;BME280;47351;53.326;-6.298;2023-03-14T03:39:01;99685.58;;;2.70;87.64
61488;BME280;47351;53.326;-6.298;2023-03-14T03:42:13;99681.61;;;2.67;87.65
61488;BME280;47351;53.326;-6.298;2023-03-14T03:45:24;99709.20;;;2.64;87.46
61488;BME280;47351;53.326;-6.298;2023-03-14T03:48:35;99736.17;;;2.59;87.21
61488;BME280;47351;53.326;-6.298;2023-03-14T03:51:38;99750.95;;;2.55;87.13
61488;BME280;47351;53.326;-6.298;2023-03-14T03:54:50;99746.46;;;2.54;87.29
61488;BME280;47351;53.326;-6.298;2023-03-14T03:58:01;99735.20;;;2.58;87.57
61488;BME280;47351;53.326;-6.298;2023-03-14T04:01:12;99739.19;;;2.61;87.72
61488;BME280;47351;53.326;-6.298;2023-03-14T04:04:23;99747.39;;;2.62;87.77
61488;BME280;47351;53.326;-6.298;2023-03-14T04:07:35;99761.98;;;2.63;87.89
61488;BME280;47351;53.326;-6.298;2023-03-14T04:10:46;99768.91;;;2.62;87.90
61488;BME280;47351;53.326;-6.298;2023-03-14T04:13:57;99780.36;;;2.62;87.94
61488;BME280;47351;53.326;-6.298;2023-03-14T04:17:08;99807.79;;;2.58;87.61
61488;BME280;47351;53.326;-6.298;2023-03-14T04:20:19;99823.95;;;2.54;87.50
61488;BME280;47351;53.326;-6.298;2023-03-14T04:23:30;99836.52;;;2.51;87.70
61488;BME280;47351;53.326;-6.298;2023-03-14T04:26:42;99850.31;;;2.46;87.70
61488;BME280;47351;53.326;-6.298;2023-03-14T04:29:53;99853.48;;;2.40;87.63
61488;BME280;47351;53.326;-6.298;2023-03-14T04:33:04;99863.67;;;2.32;87.53
61488;BME280;47351;53.326;-6.298;2023-03-14T04:36:14;99873.05;;;2.23;87.44
61488;BME280;47351;53.326;-6.298;2023-03-14T04:39:25;99887.29;;;2.15;87.57
61488;BME280;47351;53.326;-6.298;2023-03-14T04:42:37;99906.21;;;2.07;87.70
61488;BME280;47351;53.326;-6.298;2023-03-14T04:45:48;99906.45;;;2.02;87.92
61488;BME280;47351;53.326;-6.298;2023-03-14T04:48:59;99914.46;;;1.98;88.16
61488;BME280;47351;53.326;-6.298;2023-03-14T04:52:03;99928.80;;;1.95;88.33
61488;BME280;47351;53.326;-6.298;2023-03-14T04:55:14;99934.54;;;1.92;88.49
61488;BME280;47351;53.326;-6.298;2023-03-14T04:58:19;99939.77;;;1.90;88.44
61488;BME280;47351;53.326;-6.298;2023-03-14T05:01:25;99946.20;;;1.89;88.58
61488;BME280;47351;53.326;-6.298;2023-03-14T05:04:34;99956.23;;;1.89;88.47
61488;BME280;47351;53.326;-6.298;2023-03-14T05:07:52;99959.50;;;1.90;88.56
61488;BME280;47351;53.326;-6.298;2023-03-14T05:11:06;99967.05;;;1.90;88.52
61488;BME280;47351;53.326;-6.298;2023-03-14T05:14:17;99981.63;;;1.90;88.44
61488;BME280;47351;53.326;-6.298;2023-03-14T05:17:28;99996.81;;;1.90;88.29
61488;BME280;47351;53.326;-6.298;2023-03-14T05:20:42;100009.92;;;1.88;88.21
61488;BME280;47351;53.326;-6.298;2023-03-14T05:23:59;100020.04;;;1.82;88.00
61488;BME280;47351;53.326;-6.298;2023-03-14T05:27:19;100028.18;;;1.75;87.85
61488;BME280;47351;53.326;-6.298;2023-03-14T05:30:34;100032.38;;;1.66;87.92
61488;BME280;47351;53.326;-6.298;2023-03-14T05:33:43;100031.76;;;1.56;87.91
61488;BME280;47351;53.326;-6.298;2023-03-14T05:37:03;100035.50;;;1.46;87.83
61488;BME280;47351;53.326;-6.298;2023-03-14T05:40:17;100038.28;;;1.37;87.99
61488;BME280;47351;53.326;-6.298;2023-03-14T05:43:28;100045.08;;;1.33;88.24
61488;BME280;47351;53.326;-6.298;2023-03-14T05:46:46;100055.15;;;1.31;88.47
61488;BME280;47351;53.326;-6.298;2023-03-14T05:50:15;100051.78;;;1.29;88.63
61488;BME280;47351;53.326;-6.298;2023-03-14T05:53:27;100052.63;;;1.27;88.62
61488;BME280;47351;53.326;-6.298;2023-03-14T05:56:37;100063.20;;;1.24;88.57
61488;BME280;47351;53.326;-6.298;2023-03-14T05:59:57;100078.11;;;1.22;88.62
61488;BME280;47351;53.326;-6.298;2023-03-14T06:03:09;100089.38;;;1.19;88.58
61488;BME280;47351;53.326;-6.298;2023-03-14T06:06:21;100097.73;;;1.16;88.50
61488;BME280;47351;53.326;-6.298;2023-03-14T06:09:26;100106.35;;;1.11;88.35
61488;BME280;47351;53.326;-6.298;2023-03-14T06:12:37;100114.06;;;1.04;88.29
61488;BME280;47351;53.326;-6.298;2023-03-14T06:15:48;100120.95;;;0.96;88.24
61488;BME280;47351;53.326;-6.298;2023-03-14T06:18:59;100129.58;;;0.88;88.35
61488;BME280;47351;53.326;-6.298;2023-03-14T06:22:11;100136.47;;;0.83;88.50
61488;BME280;47351;53.326;-6.298;2023-03-14T06:25:22;100138.94;;;0.78;88.65
61488;BME280;47351;53.326;-6.298;2023-03-14T06:28:33;100150.52;;;0.76;88.79
61488;BME280;47351;53.326;-6.298;2023-03-14T06:31:45;100157.09;;;0.75;88.98
61488;BME280;47351;53.326;-6.298;2023-03-14T06:34:56;100160.16;;;0.74;89.07
61488;BME280;47351;53.326;-6.298;2023-03-14T06:38:11;100165.30;;;0.73;89.08
61488;BME280;47351;53.326;-6.298;2023-03-14T06:41:22;100167.80;;;0.72;89.11
61488;BME280;47351;53.326;-6.298;2023-03-14T06:44:35;100174.91;;;0.71;89.25
61488;BME280;47351;53.326;-6.298;2023-03-14T06:47:47;100185.55;;;0.70;89.31
61488;BME280;47351;53.326;-6.298;2023-03-14T06:50:58;100192.59;;;0.70;89.27
61488;BME280;47351;53.326;-6.298;2023-03-14T06:54:09;100195.25;;;0.69;89.20
61488;BME280;47351;53.326;-6.298;2023-03-14T06:57:20;100195.75;;;0.70;89.29
61488;BME280;47351;53.326;-6.298;2023-03-14T07:00:32;100198.94;;;0.72;89.27
61488;BME280;47351;53.326;-6.298;2023-03-14T07:03:42;100206.89;;;0.76;89.46
61488;BME280;47351;53.326;-6.298;2023-03-14T07:06:53;100217.41;;;0.81;89.39
61488;BME280;47351;53.326;-6.298;2023-03-14T07:10:05;100227.94;;;0.86;89.31
61488;BME280;47351;53.326;-6.298;2023-03-14T07:13:18;100239.93;;;0.93;89.31
61488;BME280;47351;53.326;-6.298;2023-03-14T07:16:29;100253.52;;;1.00;89.06
61488;BME280;47351;53.326;-6.298;2023-03-14T07:19:41;100260.25;;;1.07;88.88
61488;BME280;47351;53.326;-6.298;2023-03-14T07:22:52;100269.89;;;1.12;88.67
61488;BME280;47351;53.326;-6.298;2023-03-14T07:26:03;100281.75;;;1.18;88.51
61488;BME280;47351;53.326;-6.298;2023-03-14T07:29:15;100284.89;;;1.26;88.23
61488;BME280;47351;53.326;-6.298;2023-03-14T07:32:26;100288.63;;;1.55;88.08
61488;BME280;47351;53.326;-6.298;2023-03-14T07:35:38;100293.64;;;2.63;87.63
61488;BME280;47351;53.326;-6.298;2023-03-14T07:38:49;100293.89;;;3.65;85.97
61488;BME280;47351;53.326;-6.298;2023-03-14T07:42:17;100301.27;;;4.57;83.33
61488;BME280;47351;53.326;-6.298;2023-03-14T07:45:40;100300.19;;;4.91;80.94
61488;BME280;47351;53.326;-6.298;2023-03-14T07:48:51;100311.79;;;4.85;79.82
61488;BME280;47351;53.326;-6.298;2023-03-14T07:51:55;100318.85;;;5.12;78.89
61488;BME280;47351;53.326;-6.298;2023-03-14T07:55:06;100323.42;;;5.85;76.84
61488;BME280;47351;53.326;-6.298;2023-03-14T07:58:05;100333.34;;;6.73;75.04
61488;BME280;47351;53.326;-6.298;2023-03-14T08:00:58;100334.88;;;7.45;72.82
61488;BME280;47351;53.326;-6.298;2023-03-14T08:03:49;100333.85;;;7.88;70.19
61488;BME280;47351;53.326;-6.298;2023-03-14T08:06:40;100340.56;;;7.96;68.68
61488;BME280;47351;53.326;-6.298;2023-03-14T08:09:50;100350.55;;;7.18;68.27
61488;BME280;47351;53.326;-6.298;2023-03-14T08:13:01;100355.27;;;6.29;69.10
61488;BME280;47351;53.326;-6.298;2023-03-14T08:16:12;100368.08;;;5.87;70.13
61488;BME280;47351;53.326;-6.298;2023-03-14T08:19:22;100375.64;;;5.69;70.79
61488;BME280;47351;53.326;-6.298;2023-03-14T08:22:18;100372.21;;;5.50;71.43
61488;BME280;47351;53.326;-6.298;2023-03-14T08:25:29;100375.61;;;5.67;71.34
61488;BME280;47351;53.326;-6.298;2023-03-14T08:28:32;100377.77;;;5.89;70.99
61488;BME280;47351;53.326;-6.298;2023-03-14T08:31:43;100382.17;;;5.53;70.88
61488;BME280;47351;53.326;-6.298;2023-03-14T08:34:54;100388.34;;;5.04;71.45
61488;BME280;47351;53.326;-6.298;2023-03-14T08:38:05;100392.70;;;4.56;72.69
61488;BME280;47351;53.326;-6.298;2023-03-14T08:41:16;100399.58;;;4.37;73.21
61488;BME280;47351;53.326;-6.298;2023-03-14T08:44:28;100398.14;;;5.05;73.24
61488;BME280;47351;53.326;-6.298;2023-03-14T08:47:39;100395.54;;;6.42;71.41
61488;BME280;47351;53.326;-6.298;2023-03-14T08:50:29;100397.27;;;8.09;68.53
61488;BME280;47351;53.326;-6.298;2023-03-14T08:53:20;100392.40;;;9.95;65.96
61488;BME280;47351;53.326;-6.298;2023-03-14T08:56:13;100395.05;;;11.71;63.35
61488;BME280;47351;53.326;-6.298;2023-03-14T08:59:03;100394.55;;;12.96;58.64
61488;BME280;47351;53.326;-6.298;2023-03-14T09:01:54;100400.84;;;13.77;55.07
61488;BME280;47351;53.326;-6.298;2023-03-14T09:04:45;100397.39;;;14.37;52.47
61488;BME280;47351;53.326;-6.298;2023-03-14T09:07:36;100397.42;;;15.03;51.79
61488;BME280;47351;53.326;-6.298;2023-03-14T09:10:27;100396.07;;;15.69;50.38
61488;BME280;47351;53.326;-6.298;2023-03-14T09:13:17;100400.88;;;15.80;47.73
61488;BME280;47351;53.326;-6.298;2023-03-14T09:16:09;100402.81;;;15.59;47.91
61488;BME280;47351;53.326;-6.298;2023-03-14T09:18:59;100401.23;;;16.29;46.78
61488;BME280;47351;53.326;-6.298;2023-03-14T09:21:50;100396.05;;;17.13;46.45
61488;BME280;47351;53.326;-6.298;2023-03-14T09:24:41;100388.45;;;17.94;44.71
61488;BME280;47351;53.326;-6.298;2023-03-14T09:27:31;100387.37;;;18.74;44.09
61488;BME280;47351;53.326;-6.298;2023-03-14T09:30:22;100388.20;;;19.57;43.02
61488;BME280;47351;53.326;-6.298;2023-03-14T09:33:12;100392.27;;;20.24;41.11
61488;BME280;47351;53.326;-6.298;2023-03-14T09:36:03;100391.52;;;20.43;37.91
61488;BME280;47351;53.326;-6.298;2023-03-14T09:38:54;100395.48;;;20.48;37.36
61488;BME280;47351;53.326;-6.298;2023-03-14T09:41:45;100403.02;;;20.54;36.72
61488;BME280;47351;53.326;-6.298;2023-03-14T09:44:39;100401.65;;;20.89;37.20
61488;BME280;47351;53.326;-6.298;2023-03-14T09:47:31;100409.58;;;21.51;37.70
61488;BME280;47351;53.326;-6.298;2023-03-14T09:50:26;100410.82;;;22.11;36.31
61488;BME280;47351;53.326;-6.298;2023-03-14T09:53:20;100415.20;;;22.21;34.53
61488;BME280;47351;53.326;-6.298;2023-03-14T09:56:13;100419.13;;;22.39;35.12
61488;BME280;47351;53.326;-6.298;2023-03-14T09:59:08;100422.68;;;22.90;34.24
61488;BME280;47351;53.326;-6.298;2023-03-14T10:02:10;100420.52;;;23.02;34.01
61488;BME280;47351;53.326;-6.298;2023-03-14T10:05:05;100424.96;;;23.10;33.05
61488;BME280;47351;53.326;-6.298;2023-03-14T10:07:57;100426.52;;;23.14;31.70
61488;BME280;47351;53.326;-6.298;2023-03-14T10:10:48;100432.72;;;23.13;31.81
61488;BME280;47351;53.326;-6.298;2023-03-14T10:13:47;100435.49;;;23.48;31.32
61488;BME280;47351;53.326;-6.298;2023-03-14T10:16:40;100445.34;;;23.59;30.94
61488;BME280;47351;53.326;-6.298;2023-03-14T10:19:31;100456.98;;;22.18;30.24
61488;BME280;47351;53.326;-6.298;2023-03-14T10:22:22;100465.79;;;19.66;32.52
61488;BME280;47351;53.326;-6.298;2023-03-14T10:25:23;100477.55;;;17.88;34.87
61488;BME280;47351;53.326;-6.298;2023-03-14T10:28:22;100479.71;;;16.74;36.02
61488;BME280;47351;53.326;-6.298;2023-03-14T10:31:13;100473.95;;;16.49;37.40
61488;BME280;47351;53.326;-6.298;2023-03-14T10:34:04;100473.61;;;18.43;36.23
61488;BME280;47351;53.326;-6.298;2023-03-14T10:36:57;100470.77;;;20.15;34.29
61488;BME280;47351;53.326;-6.298;2023-03-14T10:39:49;100471.65;;;20.40;33.52
61488;BME280;47351;53.326;-6.298;2023-03-14T10:42:41;100460.14;;;20.11;33.75
61488;BME280;47351;53.326;-6.298;2023-03-14T10:45:37;100463.14;;;20.06;33.83
61488;BME280;47351;53.326;-6.298;2023-03-14T10:48:32;100466.16;;;19.41;33.98
61488;BME280;47351;53.326;-6.298;2023-03-14T10:51:25;100468.79;;;19.18;34.82
61488;BME280;47351;53.326;-6.298;2023-03-14T10:54:19;100468.24;;;19.47;33.83
61488;BME280;47351;53.326;-6.298;2023-03-14T10:57:11;100470.68;;;19.50;33.65
61488;BME280;47351;53.326;-6.298;2023-03-14T11:00:02;100472.09;;;19.17;34.27
61488;BME280;47351;53.326;-6.298;2023-03-14T11:03:00;100472.70;;;18.79;35.14
61488;BME280;47351;53.326;-6.298;2023-03-14T11:05:55;100476.27;;;20.23;34.50
61488;BME280;47351;53.326;-6.298;2023-03-14T11:08:48;100469.69;;;21.98;32.35
61488;BME280;47351;53.326;-6.298;2023-03-14T11:11:43;100472.14;;;22.60;30.95
61488;BME280;47351;53.326;-6.298;2023-03-14T11:14:38;100479.41;;;22.75;29.76
61488;BME280;47351;53.326;-6.298;2023-03-14T11:17:34;100478.91;;;21.43;30.12
61488;BME280;47351;53.326;-6.298;2023-03-14T11:20:29;100484.82;;;19.61;31.95
61488;BME280;47351;53.326;-6.298;2023-03-14T11:23:22;100487.52;;;18.65;33.48
61488;BME280;47351;53.326;-6.298;2023-03-14T11:26:17;100481.87;;;18.96;33.63
61488;BME280;47351;53.326;-6.298;2023-03-14T11:29:12;100477.60;;;19.59;33.53
61488;BME280;47351;53.326;-6.298;2023-03-14T11:32:12;100482.20;;;18.59;34.13
61488;BME280;47351;53.326;-6.298;2023-03-14T11:35:04;100479.70;;;17.75;34.96
61488;BME280;47351;53.326;-6.298;2023-03-14T11:38:05;100481.45;;;16.87;36.02
61488;BME280;47351;53.326;-6.298;2023-03-14T11:41:00;100488.49;;;16.15;36.85
61488;BME280;47351;53.326;-6.298;2023-03-14T11:43:52;100484.48;;;16.68;36.80
61488;BME280;47351;53.326;-6.298;2023-03-14T11:46:45;100492.53;;;17.96;34.79
61488;BME280;47351;53.326;-6.298;2023-03-14T11:49:38;100495.88;;;17.72;34.05
61488;BME280;47351;53.326;-6.298;2023-03-14T11:52:32;100486.52;;;16.16;35.77
61488;BME280;47351;53.326;-6.298;2023-03-14T11:55:24;100488.70;;;14.90;37.65
61488;BME280;47351;53.326;-6.298;2023-03-14T11:58:17;100481.36;;;14.46;38.53
61488;BME280;47351;53.326;-6.298;2023-03-14T12:01:09;100491.85;;;14.18;39.33
61488;BME280;47351;53.326;-6.298;2023-03-14T12:04:02;100498.38;;;13.80;39.58
61488;BME280;47351;53.326;-6.298;2023-03-14T12:06:57;100488.55;;;13.55;40.19
61488;BME280;47351;53.326;-6.298;2023-03-14T12:09:49;100486.91;;;13.33;41.02
61488;BME280;47351;53.326;-6.298;2023-03-14T12:12:44;100482.34;;;12.87;41.44
61488;BME280;47351;53.326;-6.298;2023-03-14T12:15:34;100487.85;;;12.36;42.23
61488;BME280;47351;53.326;-6.298;2023-03-14T12:18:29;100497.94;;;11.75;42.73
61488;BME280;47351;53.326;-6.298;2023-03-14T12:21:21;100501.50;;;11.12;43.91
61488;BME280;47351;53.326;-6.298;2023-03-14T12:24:17;100513.85;;;10.48;45.69
61488;BME280;47351;53.326;-6.298;2023-03-14T12:27:10;100541.67;;;9.83;47.82
61488;BME280;47351;53.326;-6.298;2023-03-14T12:30:14;100553.50;;;9.19;50.37
61488;BME280;47351;53.326;-6.298;2023-03-14T12:33:18;100546.79;;;8.71;52.82
61488;BME280;47351;53.326;-6.298;2023-03-14T12:36:49;100548.23;;;8.49;54.45
61488;BME280;47351;53.326;-6.298;2023-03-14T12:39:45;100552.14;;;8.44;55.40
61488;BME280;47351;53.326;-6.298;2023-03-14T12:42:43;100556.13;;;8.33;56.30
61488;BME280;47351;53.326;-6.298;2023-03-14T12:46:00;100567.17;;;8.20;57.41
61488;BME280;47351;53.326;-6.298;2023-03-14T12:49:09;100569.77;;;8.12;58.28
61488;BME280;47351;53.326;-6.298;2023-03-14T12:52:13;100577.65;;;7.88;58.57
61488;BME280;47351;53.326;-6.298;2023-03-14T12:55:26;100579.86;;;7.61;59.46
61488;BME280;47351;53.326;-6.298;2023-03-14T12:58:30;100579.81;;;7.52;60.37
61488;BME280;47351;53.326;-6.298;2023-03-14T13:01:34;100579.42;;;7.56;60.79
61488;BME280;47351;53.326;-6.298;2023-03-14T13:04:29;100579.27;;;7.92;60.59
61488;BME280;47351;53.326;-6.298;2023-03-14T13:07:35;100578.92;;;8.20;60.30
61488;BME280;47351;53.326;-6.298;2023-03-14T13:10:48;100570.55;;;8.68;59.48
61488;BME280;47351;53.326;-6.298;2023-03-14T13:13:44;100571.23;;;9.12;59.05
61488;BME280;47351;53.326;-6.298;2023-03-14T13:16:43;100569.77;;;9.25;58.41
61488;BME280;47351;53.326;-6.298;2023-03-14T13:19:34;100572.28;;;9.09;58.71
61488;BME280;47351;53.326;-6.298;2023-03-14T13:22:25;100568.19;;;9.07;58.67
61488;BME280;47351;53.326;-6.298;2023-03-14T13:25:37;100565.71;;;9.21;58.58
61488;BME280;47351;53.326;-6.298;2023-03-14T13:28:39;100567.04;;;9.31;58.29
61488;BME280;47351;53.326;-6.298;2023-03-14T13:31:30;100575.42;;;10.29;56.73
61488;BME280;47351;53.326;-6.298;2023-03-14T13:34:41;100567.00;;;11.09;54.93
61488;BME280;47351;53.326;-6.298;2023-03-14T13:37:32;100568.09;;;11.04;53.77
61488;BME280;47351;53.326;-6.298;2023-03-14T13:40:37;100575.98;;;10.51;53.83
61488;BME280;47351;53.326;-6.298;2023-03-14T13:43:29;100562.35;;;11.49;52.91
61488;BME280;47351;53.326;-6.298;2023-03-14T13:46:21;100551.77;;;14.21;49.37
61488;BME280;47351;53.326;-6.298;2023-03-14T13:49:15;100550.73;;;16.33;45.08
61488;BME280;47351;53.326;-6.298;2023-03-14T13:55:15;100556.08;;;18.54;39.97
61488;BME280;47351;53.326;-6.298;2023-03-14T13:58:12;100555.95;;;19.24;38.53
61488;BME280;47351;53.326;-6.298;2023-03-14T14:01:12;100551.96;;;19.74;37.10
61488;BME280;47351;53.326;-6.298;2023-03-14T14:04:05;100557.87;;;20.15;36.45
61488;BME280;47351;53.326;-6.298;2023-03-14T14:06:57;100559.46;;;20.41;35.59
61488;BME280;47351;53.326;-6.298;2023-03-14T14:09:49;100556.58;;;20.44;35.54
61488;BME280;47351;53.326;-6.298;2023-03-14T14:12:42;100560.54;;;20.69;34.72
61488;BME280;47351;53.326;-6.298;2023-03-14T14:15:35;100562.80;;;20.88;34.58
61488;BME280;47351;53.326;-6.298;2023-03-14T14:18:27;100568.90;;;20.86;34.09
61488;BME280;47351;53.326;-6.298;2023-03-14T14:21:18;100561.40;;;20.84;34.22
61488;BME280;47351;53.326;-6.298;2023-03-14T14:24:10;100568.89;;;20.74;34.43
61488;BME280;47351;53.326;-6.298;2023-03-14T14:27:08;100575.19;;;19.89;34.53
61488;BME280;47351;53.326;-6.298;2023-03-14T14:30:00;100580.36;;;18.85;35.62
61488;BME280;47351;53.326;-6.298;2023-03-14T14:32:51;100575.59;;;18.05;35.67
61488;BME280;47351;53.326;-6.298;2023-03-14T14:35:44;100566.84;;;18.40;35.94
61488;BME280;47351;53.326;-6.298;2023-03-14T14:38:42;100563.06;;;18.47;36.06
61488;BME280;47351;53.326;-6.298;2023-03-14T14:41:33;100564.95;;;17.01;37.66
61488;BME280;47351;53.326;-6.298;2023-03-14T14:44:27;100572.80;;;15.37;39.75
61488;BME280;47351;53.326;-6.298;2023-03-14T14:47:22;100581.27;;;14.08;41.61
61488;BME280;47351;53.326;-6.298;2023-03-14T14:50:25;100582.74;;;14.00;42.53
61488;BME280;47351;53.326;-6.298;2023-03-14T14:53:21;100591.79;;;13.66;43.44
61488;BME280;47351;53.326;-6.298;2023-03-14T14:56:18;100623.23;;;12.52;45.76
61488;BME280;47351;53.326;-6.298;2023-03-14T14:59:26;100631.59;;;11.16;47.72
61488;BME280;47351;53.326;-6.298;2023-03-14T15:02:27;100641.24;;;10.26;49.83
61488;BME280;47351;53.326;-6.298;2023-03-14T15:05:29;100651.80;;;9.67;51.34
61488;BME280;47351;53.326;-6.298;2023-03-14T15:08:37;100662.29;;;9.12;52.83
61488;BME280;47351;53.326;-6.298;2023-03-14T15:11:49;100679.36;;;8.56;54.48
61488;BME280;47351;53.326;-6.298;2023-03-14T15:14:54;100681.92;;;8.06;55.66
61488;BME280;47351;53.326;-6.298;2023-03-14T15:18:10;100685.70;;;7.51;56.84
61488;BME280;47351;53.326;-6.298;2023-03-14T15:21:13;100693.01;;;7.03;57.95
61488;BME280;47351;53.326;-6.298;2023-03-14T15:24:18;100700.78;;;6.75;59.19
61488;BME280;47351;53.326;-6.298;2023-03-14T15:27:31;100713.84;;;6.58;60.08
61488;BME280;47351;53.326;-6.298;2023-03-14T15:30:42;100731.93;;;6.37;60.77
61488;BME280;47351;53.326;-6.298;2023-03-14T15:33:53;100739.79;;;6.13;61.79
61488;BME280;47351;53.326;-6.298;2023-03-14T15:37:04;100755.61;;;5.89;63.01
61488;BME280;47351;53.326;-6.298;2023-03-14T15:40:17;100746.27;;;5.69;64.28
61488;BME280;47351;53.326;-6.298;2023-03-14T15:43:29;100743.37;;;5.55;64.46
61488;BME280;47351;53.326;-6.298;2023-03-14T15:46:39;100748.07;;;5.58;65.11
61488;BME280;47351;53.326;-6.298;2023-03-14T15:49:50;100752.44;;;5.80;65.71
61488;BME280;47351;53.326;-6.298;2023-03-14T15:53:01;100751.37;;;6.25;65.70
61488;BME280;47351;53.326;-6.298;2023-03-14T15:56:13;100754.81;;;6.95;65.49
61488;BME280;47351;53.326;-6.298;2023-03-14T15:59:24;100749.34;;;7.48;64.93
61488;BME280;47351;53.326;-6.298;2023-03-14T16:02:35;100749.91;;;7.70;64.24
61488;BME280;47351;53.326;-6.298;2023-03-14T16:05:49;100743.44;;;7.76;64.12
61488;BME280;47351;53.326;-6.298;2023-03-14T16:09:00;100738.91;;;7.81;64.20